OEHWY LEPA-LOWW
Flight info
| Callsign | OEHWY |
|---|---|
| Flight time | 2h 1m |
| Altitude | 43000 |
| Route | ISTER DCT NIVDA DCT OMEDA DCT RAPUR/N0465F200 DCT TORTU DCT ERTEV DCT IDONA/N0490F450 DCT BARPI DCT LAPNA LAPNA2W |
| Aircraft | C750/M-SBDE3FGHRWXY/S |
Departure
| Time | 2026-04-23 17:42 |
|---|---|
| Airport | Palma de Mallorca Airport (LEPA) |
Arrival
| Time | 2026-04-23 19:43 |
|---|---|
| Airport | Vienna International Airport (LOWW) |
| Time | Latitude | Longitude | Altitude | Speed | Heading |
|---|---|---|---|---|---|
| 2026-04-23 17:25 | 39.54112 | 2.72483 | 31 ft | 0 kts | 166° |
| 2026-04-23 17:36 | 39.54109 | 2.72484 | 31 ft | 3 kts | 162° |
| 2026-04-23 17:36 | 39.54103 | 2.72505 | 31 ft | 3 kts | 85° |
| 2026-04-23 17:36 | 39.54125 | 2.72541 | 31 ft | 7 kts | 35° |
| 2026-04-23 17:37 | 39.54164 | 2.72573 | 31 ft | 6 kts | 39° |
| 2026-04-23 17:37 | 39.54200 | 2.72629 | 31 ft | 10 kts | 52° |
| 2026-04-23 17:37 | 39.54272 | 2.72786 | 32 ft | 9 kts | 75° |
| 2026-04-23 17:38 | 39.54246 | 2.72842 | 32 ft | 7 kts | 147° |
| 2026-04-23 17:38 | 39.54220 | 2.72864 | 33 ft | 0 kts | 147° |
| 2026-04-23 17:38 | 39.54194 | 2.72887 | 33 ft | 8 kts | 141° |
| 2026-04-23 17:38 | 39.54158 | 2.72950 | 33 ft | 8 kts | 117° |
| 2026-04-23 17:39 | 39.54152 | 2.73014 | 33 ft | 7 kts | 89° |
| 2026-04-23 17:39 | 39.54155 | 2.73084 | 33 ft | 8 kts | 87° |
| 2026-04-23 17:39 | 39.54157 | 2.73161 | 33 ft | 9 kts | 88° |
| 2026-04-23 17:39 | 39.54166 | 2.73247 | 32 ft | 9 kts | 72° |
| 2026-04-23 17:40 | 39.54174 | 2.73270 | 32 ft | 0 kts | 60° |
| 2026-04-23 17:41 | 39.54175 | 2.73271 | 32 ft | 3 kts | 60° |
| 2026-04-23 17:41 | 39.54275 | 2.73487 | 29 ft | 75 kts | 59° |
| 2026-04-23 17:42 | 39.55202 | 2.75467 | 603 ft | 152 kts | 60° |
| 2026-04-23 17:42 | 39.55741 | 2.76575 | 685 ft | 132 kts | 59° |
| 2026-04-23 17:42 | 39.56199 | 2.77574 | 637 ft | 142 kts | 62° |
| 2026-04-23 17:43 | 39.56726 | 2.78816 | 976 ft | 172 kts | 64° |
| 2026-04-23 17:43 | 39.57387 | 2.80162 | 1691 ft | 176 kts | 56° |
| 2026-04-23 17:43 | 39.58061 | 2.81374 | 2785 ft | 159 kts | 58° |
| 2026-04-23 17:43 | 39.58664 | 2.82598 | 3521 ft | 162 kts | 59° |
| 2026-04-23 17:44 | 39.59250 | 2.83827 | 4039 ft | 169 kts | 59° |
| 2026-04-23 17:44 | 39.59918 | 2.85222 | 4301 ft | 190 kts | 58° |
| 2026-04-23 17:44 | 39.61236 | 2.87965 | 5981 ft | 182 kts | 55° |
| 2026-04-23 17:45 | 39.61925 | 2.89398 | 6523 ft | 198 kts | 54° |
| 2026-04-23 17:45 | 39.63472 | 2.93012 | 7377 ft | 257 kts | 57° |
| 2026-04-23 17:45 | 39.64405 | 2.95127 | 7943 ft | 282 kts | 57° |
| 2026-04-23 17:46 | 39.66320 | 2.99675 | 9952 ft | 294 kts | 58° |
| 2026-04-23 17:46 | 39.67329 | 3.02059 | 10511 ft | 312 kts | 58° |
| 2026-04-23 17:46 | 39.68140 | 3.04828 | 10584 ft | 347 kts | 72° |
| 2026-04-23 17:47 | 39.68608 | 3.08021 | 10878 ft | 367 kts | 78° |
| 2026-04-23 17:47 | 39.68993 | 3.11298 | 11736 ft | 368 kts | 78° |
| 2026-04-23 17:47 | 39.70121 | 3.17819 | 13175 ft | 377 kts | 73° |
| 2026-04-23 17:48 | 39.70676 | 3.21166 | 13906 ft | 382 kts | 75° |
| 2026-04-23 17:48 | 39.71184 | 3.24577 | 14574 ft | 386 kts | 76° |
| 2026-04-23 17:48 | 39.71722 | 3.28010 | 15253 ft | 389 kts | 75° |
| 2026-04-23 17:48 | 39.72295 | 3.31450 | 15962 ft | 392 kts | 75° |
| 2026-04-23 17:49 | 39.72861 | 3.34923 | 16693 ft | 394 kts | 75° |
| 2026-04-23 17:49 | 39.73410 | 3.38430 | 17404 ft | 398 kts | 75° |
| 2026-04-23 17:49 | 39.73968 | 3.41976 | 18158 ft | 402 kts | 75° |
| 2026-04-23 17:49 | 39.74540 | 3.45540 | 18862 ft | 405 kts | 75° |
| 2026-04-23 17:50 | 39.75117 | 3.49145 | 19502 ft | 410 kts | 75° |
| 2026-04-23 17:50 | 39.76275 | 3.56494 | 20837 ft | 419 kts | 75° |
| 2026-04-23 17:50 | 39.76866 | 3.60233 | 21500 ft | 424 kts | 75° |
| 2026-04-23 17:51 | 39.77462 | 3.64015 | 22160 ft | 429 kts | 75° |
| 2026-04-23 17:51 | 39.78063 | 3.67842 | 22806 ft | 434 kts | 75° |
| 2026-04-23 17:51 | 39.79279 | 3.75618 | 24027 ft | 444 kts | 74° |
| 2026-04-23 17:52 | 39.79895 | 3.79566 | 24614 ft | 447 kts | 74° |
| 2026-04-23 17:52 | 39.81134 | 3.87547 | 25747 ft | 454 kts | 74° |
| 2026-04-23 17:52 | 39.81758 | 3.91581 | 26300 ft | 457 kts | 74° |
| 2026-04-23 17:53 | 39.83011 | 3.99705 | 27404 ft | 464 kts | 74° |
| 2026-04-23 17:53 | 39.83647 | 4.03841 | 27959 ft | 468 kts | 74° |
| 2026-04-23 17:53 | 39.84285 | 4.08004 | 28510 ft | 471 kts | 74° |
| 2026-04-23 17:54 | 39.84928 | 4.12206 | 29058 ft | 475 kts | 74° |
| 2026-04-23 17:54 | 39.85574 | 4.16443 | 29593 ft | 479 kts | 74° |
| 2026-04-23 17:54 | 39.87723 | 4.24585 | 30535 ft | 474 kts | 57° |
| 2026-04-23 17:55 | 39.91036 | 4.32014 | 31540 ft | 474 kts | 54° |
| 2026-04-23 17:55 | 39.92682 | 4.35724 | 32215 ft | 472 kts | 54° |
| 2026-04-23 17:55 | 39.94328 | 4.39423 | 32832 ft | 472 kts | 54° |
| 2026-04-23 17:56 | 39.95962 | 4.43060 | 33451 ft | 471 kts | 54° |
| 2026-04-23 17:56 | 39.99249 | 4.50428 | 34697 ft | 469 kts | 54° |
| 2026-04-23 17:56 | 40.00878 | 4.54097 | 35283 ft | 467 kts | 54° |
| 2026-04-23 17:57 | 40.02508 | 4.57758 | 35891 ft | 466 kts | 54° |
| 2026-04-23 17:57 | 40.04133 | 4.61410 | 36484 ft | 464 kts | 54° |
| 2026-04-23 17:57 | 40.07570 | 4.68469 | 37589 ft | 455 kts | 45° |
| 2026-04-23 17:58 | 40.09608 | 4.71627 | 38052 ft | 455 kts | 44° |
| 2026-04-23 17:58 | 40.11695 | 4.74818 | 38020 ft | 467 kts | 44° |
| 2026-04-23 17:58 | 40.13800 | 4.78127 | 38031 ft | 479 kts | 45° |
| 2026-04-23 17:59 | 40.18092 | 4.84940 | 38045 ft | 496 kts | 45° |
| 2026-04-23 17:59 | 40.22577 | 4.91963 | 38047 ft | 508 kts | 45° |
| 2026-04-23 18:00 | 40.27094 | 4.99134 | 38042 ft | 512 kts | 45° |
| 2026-04-23 18:00 | 40.31642 | 5.06312 | 38049 ft | 512 kts | 45° |
| 2026-04-23 18:01 | 40.36179 | 5.13524 | 38051 ft | 513 kts | 45° |
| 2026-04-23 18:01 | 40.40720 | 5.20740 | 38047 ft | 513 kts | 45° |
| 2026-04-23 18:02 | 40.44486 | 5.26748 | 38052 ft | 513 kts | 45° |
| 2026-04-23 18:02 | 40.49789 | 5.35218 | 38057 ft | 513 kts | 45° |
| 2026-04-23 18:03 | 40.54316 | 5.42473 | 38052 ft | 513 kts | 45° |
| 2026-04-23 18:03 | 40.58840 | 5.49736 | 38058 ft | 513 kts | 45° |
| 2026-04-23 18:04 | 40.63357 | 5.57007 | 38056 ft | 513 kts | 45° |
| 2026-04-23 18:04 | 40.67840 | 5.64239 | 38061 ft | 513 kts | 45° |
| 2026-04-23 18:05 | 40.72344 | 5.71519 | 38062 ft | 513 kts | 45° |
| 2026-04-23 18:05 | 40.76840 | 5.78809 | 38064 ft | 512 kts | 45° |
| 2026-04-23 18:06 | 40.81335 | 5.86110 | 38063 ft | 512 kts | 45° |
| 2026-04-23 18:06 | 40.85815 | 5.93408 | 38065 ft | 511 kts | 45° |
| 2026-04-23 18:07 | 40.90291 | 6.00713 | 38066 ft | 511 kts | 45° |
| 2026-04-23 18:07 | 40.94762 | 6.08030 | 38061 ft | 511 kts | 46° |
| 2026-04-23 18:08 | 40.98468 | 6.14106 | 38046 ft | 510 kts | 45° |
| 2026-04-23 18:08 | 41.03666 | 6.22651 | 38052 ft | 509 kts | 46° |
| 2026-04-23 18:09 | 41.08101 | 6.29961 | 38055 ft | 508 kts | 46° |
| 2026-04-23 18:09 | 41.12528 | 6.37274 | 38062 ft | 508 kts | 46° |
| 2026-04-23 18:10 | 41.16949 | 6.44594 | 38073 ft | 508 kts | 46° |
| 2026-04-23 18:10 | 41.21335 | 6.51876 | 38068 ft | 508 kts | 46° |
| 2026-04-23 18:11 | 41.25780 | 6.59167 | 38069 ft | 507 kts | 44° |
| 2026-04-23 18:11 | 41.30277 | 6.66413 | 38073 ft | 507 kts | 45° |
| 2026-04-23 18:12 | 41.34773 | 6.73653 | 38073 ft | 507 kts | 45° |
| 2026-04-23 18:12 | 41.39264 | 6.80902 | 38069 ft | 507 kts | 45° |
| 2026-04-23 18:13 | 41.43746 | 6.88162 | 38070 ft | 507 kts | 45° |
| 2026-04-23 18:13 | 41.48202 | 6.95385 | 38070 ft | 507 kts | 45° |
| 2026-04-23 18:14 | 41.51923 | 7.01442 | 38074 ft | 507 kts | 45° |
| 2026-04-23 18:14 | 41.57149 | 7.09956 | 38059 ft | 507 kts | 46° |
| 2026-04-23 18:15 | 41.61611 | 7.17251 | 38074 ft | 507 kts | 46° |
| 2026-04-23 18:15 | 41.66070 | 7.24553 | 38073 ft | 507 kts | 46° |
| 2026-04-23 18:16 | 41.69764 | 7.30619 | 38074 ft | 506 kts | 46° |
| 2026-04-23 18:16 | 41.74936 | 7.39130 | 38075 ft | 506 kts | 46° |
| 2026-04-23 18:17 | 41.80872 | 7.48930 | 38071 ft | 506 kts | 47° |
| 2026-04-23 18:17 | 41.85305 | 7.56268 | 38068 ft | 506 kts | 47° |
| 2026-04-23 18:18 | 41.89703 | 7.63568 | 38069 ft | 506 kts | 47° |
| 2026-04-23 18:18 | 41.94125 | 7.70924 | 38071 ft | 506 kts | 47° |
| 2026-04-23 18:19 | 41.98546 | 7.78297 | 38069 ft | 506 kts | 48° |
| 2026-04-23 18:19 | 42.02958 | 7.85672 | 38064 ft | 506 kts | 48° |
| 2026-04-23 18:20 | 42.07364 | 7.93056 | 38062 ft | 506 kts | 48° |
| 2026-04-23 18:20 | 42.11731 | 8.00393 | 38061 ft | 505 kts | 49° |
| 2026-04-23 18:21 | 42.16120 | 8.07784 | 38058 ft | 504 kts | 49° |
| 2026-04-23 18:21 | 42.20474 | 8.15132 | 38056 ft | 501 kts | 49° |
| 2026-04-23 18:22 | 42.24817 | 8.22485 | 38054 ft | 500 kts | 49° |
| 2026-04-23 18:22 | 42.29155 | 8.29843 | 38055 ft | 500 kts | 49° |
| 2026-04-23 18:23 | 42.37149 | 8.38624 | 38035 ft | 495 kts | 25° |
| 2026-04-23 18:24 | 42.46670 | 8.43749 | 38053 ft | 493 kts | 22° |
| 2026-04-23 18:25 | 42.56172 | 8.49111 | 38065 ft | 492 kts | 21° |
| 2026-04-23 18:25 | 42.62507 | 8.52642 | 38065 ft | 491 kts | 22° |
| 2026-04-23 18:26 | 42.68819 | 8.56182 | 38060 ft | 490 kts | 21° |
| 2026-04-23 18:26 | 42.75135 | 8.59707 | 38066 ft | 491 kts | 22° |
| 2026-04-23 18:27 | 42.81406 | 8.63240 | 38076 ft | 490 kts | 22° |
| 2026-04-23 18:27 | 42.87715 | 8.66779 | 38075 ft | 490 kts | 22° |
| 2026-04-23 18:28 | 42.94026 | 8.70346 | 38073 ft | 491 kts | 22° |
| 2026-04-23 18:28 | 43.00339 | 8.73907 | 38079 ft | 491 kts | 22° |
| 2026-04-23 18:29 | 43.06659 | 8.77491 | 38078 ft | 492 kts | 22° |
| 2026-04-23 18:29 | 43.12997 | 8.81085 | 38079 ft | 492 kts | 22° |
| 2026-04-23 18:30 | 43.19326 | 8.84687 | 38072 ft | 493 kts | 22° |
| 2026-04-23 18:30 | 43.25673 | 8.88305 | 38071 ft | 494 kts | 22° |
| 2026-04-23 18:31 | 43.32033 | 8.91940 | 38071 ft | 495 kts | 22° |
| 2026-04-23 18:31 | 43.38464 | 8.95179 | 38061 ft | 497 kts | 14° |
| 2026-04-23 18:32 | 43.45352 | 8.96026 | 38070 ft | 499 kts | 360° |
| 2026-04-23 18:32 | 43.52285 | 8.95716 | 38081 ft | 498 kts | 0° |
| 2026-04-23 18:33 | 43.59186 | 8.96340 | 38064 ft | 498 kts | 11° |
| 2026-04-23 18:33 | 43.65682 | 8.99533 | 38069 ft | 498 kts | 28° |
| 2026-04-23 18:34 | 43.71198 | 9.05302 | 38073 ft | 499 kts | 44° |
| 2026-04-23 18:34 | 43.75926 | 9.12318 | 38079 ft | 498 kts | 47° |
| 2026-04-23 18:35 | 43.80901 | 9.18974 | 38088 ft | 497 kts | 42° |
| 2026-04-23 18:35 | 43.85822 | 9.25696 | 38087 ft | 496 kts | 46° |
| 2026-04-23 18:36 | 43.90719 | 9.32433 | 38081 ft | 495 kts | 44° |
| 2026-04-23 18:36 | 43.95609 | 9.39084 | 38080 ft | 495 kts | 45° |
| 2026-04-23 18:37 | 43.99980 | 9.46436 | 38063 ft | 496 kts | 58° |
| 2026-04-23 18:37 | 44.03366 | 9.54781 | 38080 ft | 494 kts | 60° |
| 2026-04-23 18:38 | 44.06864 | 9.63002 | 38071 ft | 494 kts | 59° |
| 2026-04-23 18:38 | 44.10288 | 9.71285 | 38065 ft | 493 kts | 60° |
| 2026-04-23 18:39 | 44.13731 | 9.79544 | 38065 ft | 492 kts | 59° |
| 2026-04-23 18:39 | 44.17125 | 9.87735 | 38063 ft | 491 kts | 60° |
| 2026-04-23 18:40 | 44.20532 | 9.95989 | 38062 ft | 490 kts | 59° |
| 2026-04-23 18:40 | 44.23931 | 10.04227 | 38070 ft | 490 kts | 60° |
| 2026-04-23 18:41 | 44.27314 | 10.12473 | 38082 ft | 488 kts | 59° |
| 2026-04-23 18:41 | 44.30683 | 10.20688 | 38094 ft | 487 kts | 59° |
| 2026-04-23 18:42 | 44.34017 | 10.28856 | 38101 ft | 487 kts | 59° |
| 2026-04-23 18:42 | 44.37365 | 10.37070 | 38120 ft | 486 kts | 59° |
| 2026-04-23 18:43 | 44.40701 | 10.45291 | 38132 ft | 485 kts | 59° |
| 2026-04-23 18:43 | 44.44025 | 10.53497 | 38137 ft | 484 kts | 59° |
| 2026-04-23 18:44 | 44.47338 | 10.61706 | 38137 ft | 484 kts | 59° |
| 2026-04-23 18:44 | 44.50645 | 10.69917 | 38133 ft | 483 kts | 59° |
| 2026-04-23 18:45 | 44.53938 | 10.78124 | 38132 ft | 483 kts | 59° |
| 2026-04-23 18:45 | 44.57207 | 10.86291 | 38107 ft | 483 kts | 59° |
| 2026-04-23 18:46 | 44.60486 | 10.94507 | 38075 ft | 483 kts | 59° |
| 2026-04-23 18:46 | 44.63764 | 11.02745 | 38062 ft | 483 kts | 59° |
| 2026-04-23 18:47 | 44.67035 | 11.10990 | 38049 ft | 483 kts | 59° |
| 2026-04-23 18:47 | 44.70305 | 11.19256 | 38056 ft | 483 kts | 59° |
| 2026-04-23 18:48 | 44.73547 | 11.27476 | 38059 ft | 483 kts | 59° |
| 2026-04-23 18:48 | 44.76800 | 11.35748 | 38070 ft | 483 kts | 59° |
| 2026-04-23 18:49 | 44.80051 | 11.44040 | 38081 ft | 483 kts | 59° |
| 2026-04-23 18:49 | 44.83293 | 11.52335 | 38079 ft | 483 kts | 59° |
| 2026-04-23 18:50 | 44.85984 | 11.59235 | 38086 ft | 484 kts | 59° |
| 2026-04-23 18:50 | 44.89763 | 11.68958 | 38080 ft | 484 kts | 59° |
| 2026-04-23 18:51 | 44.92990 | 11.77288 | 38074 ft | 484 kts | 59° |
| 2026-04-23 18:51 | 44.96214 | 11.85636 | 38071 ft | 484 kts | 59° |
| 2026-04-23 18:52 | 44.99412 | 11.93939 | 38060 ft | 484 kts | 59° |
| 2026-04-23 18:52 | 45.02626 | 12.02308 | 38058 ft | 484 kts | 59° |
| 2026-04-23 18:53 | 45.05830 | 12.10680 | 38059 ft | 484 kts | 59° |
| 2026-04-23 18:53 | 45.09029 | 12.19063 | 38044 ft | 484 kts | 59° |
| 2026-04-23 18:54 | 45.12228 | 12.27471 | 38050 ft | 484 kts | 59° |
| 2026-04-23 18:54 | 45.15417 | 12.35877 | 38035 ft | 484 kts | 59° |
| 2026-04-23 18:55 | 45.18600 | 12.44294 | 38021 ft | 484 kts | 59° |
| 2026-04-23 18:55 | 45.21775 | 12.52718 | 38021 ft | 485 kts | 59° |
| 2026-04-23 18:56 | 45.24412 | 12.59731 | 38028 ft | 485 kts | 59° |
| 2026-04-23 18:56 | 45.28097 | 12.69563 | 38025 ft | 485 kts | 59° |
| 2026-04-23 18:57 | 45.31257 | 12.78024 | 38036 ft | 485 kts | 59° |
| 2026-04-23 18:57 | 45.32828 | 12.82239 | 38030 ft | 474 kts | 59° |
| 2026-04-23 18:57 | 45.34319 | 12.86255 | 37863 ft | 445 kts | 59° |
| 2026-04-23 18:57 | 45.35728 | 12.90049 | 37680 ft | 423 kts | 59° |
| 2026-04-23 18:58 | 45.37081 | 12.93684 | 37498 ft | 412 kts | 59° |
| 2026-04-23 18:58 | 45.38430 | 12.97313 | 37336 ft | 418 kts | 59° |
| 2026-04-23 18:58 | 45.39797 | 13.01006 | 37206 ft | 427 kts | 60° |
| 2026-04-23 18:58 | 45.41203 | 13.04812 | 37141 ft | 441 kts | 60° |
| 2026-04-23 18:59 | 45.42652 | 13.08737 | 37146 ft | 454 kts | 60° |
| 2026-04-23 18:59 | 45.44138 | 13.12771 | 37146 ft | 466 kts | 60° |
| 2026-04-23 18:59 | 45.45657 | 13.16900 | 37144 ft | 475 kts | 60° |
| 2026-04-23 19:00 | 45.48733 | 13.25285 | 37140 ft | 476 kts | 60° |
| 2026-04-23 19:00 | 45.51785 | 13.33623 | 37138 ft | 479 kts | 60° |
| 2026-04-23 19:01 | 45.54858 | 13.42045 | 37135 ft | 479 kts | 60° |
| 2026-04-23 19:01 | 45.57929 | 13.50483 | 37136 ft | 478 kts | 60° |
| 2026-04-23 19:02 | 45.60941 | 13.57073 | 37133 ft | 476 kts | 53° |
| 2026-04-23 19:02 | 45.65384 | 13.66144 | 37138 ft | 477 kts | 53° |
| 2026-04-23 19:03 | 45.69189 | 13.73903 | 37144 ft | 476 kts | 53° |
| 2026-04-23 19:03 | 45.72974 | 13.81661 | 37139 ft | 475 kts | 53° |
| 2026-04-23 19:04 | 45.76751 | 13.89425 | 37143 ft | 475 kts | 53° |
| 2026-04-23 19:04 | 45.80525 | 13.97194 | 37134 ft | 475 kts | 54° |
| 2026-04-23 19:05 | 45.84256 | 14.04908 | 37138 ft | 473 kts | 54° |
| 2026-04-23 19:05 | 45.88000 | 14.12660 | 37142 ft | 472 kts | 54° |
| 2026-04-23 19:06 | 45.91742 | 14.20435 | 37137 ft | 473 kts | 54° |
| 2026-04-23 19:06 | 45.94855 | 14.26918 | 37128 ft | 473 kts | 54° |
| 2026-04-23 19:07 | 45.98592 | 14.34719 | 37124 ft | 474 kts | 54° |
| 2026-04-23 19:07 | 46.02328 | 14.42540 | 37117 ft | 474 kts | 54° |
| 2026-04-23 19:08 | 46.06065 | 14.50387 | 37111 ft | 474 kts | 54° |
| 2026-04-23 19:08 | 46.09769 | 14.58185 | 37111 ft | 474 kts | 54° |
| 2026-04-23 19:09 | 46.13491 | 14.66043 | 37113 ft | 474 kts | 54° |
| 2026-04-23 19:09 | 46.17204 | 14.73904 | 37113 ft | 473 kts | 54° |
| 2026-04-23 19:10 | 46.20898 | 14.81745 | 37110 ft | 472 kts | 54° |
| 2026-04-23 19:10 | 46.24564 | 14.89552 | 37104 ft | 472 kts | 54° |
| 2026-04-23 19:11 | 46.28249 | 14.97419 | 37107 ft | 472 kts | 55° |
| 2026-04-23 19:11 | 46.31920 | 15.05276 | 37111 ft | 472 kts | 55° |
| 2026-04-23 19:12 | 46.35592 | 15.13162 | 37114 ft | 471 kts | 55° |
| 2026-04-23 19:12 | 46.39254 | 15.21044 | 37119 ft | 471 kts | 55° |
| 2026-04-23 19:13 | 46.42908 | 15.28935 | 37112 ft | 472 kts | 55° |
| 2026-04-23 19:13 | 46.46556 | 15.36834 | 37114 ft | 471 kts | 55° |
| 2026-04-23 19:14 | 46.50188 | 15.44673 | 37108 ft | 471 kts | 54° |
| 2026-04-23 19:14 | 46.54733 | 15.51472 | 37099 ft | 470 kts | 38° |
| 2026-04-23 19:15 | 46.60398 | 15.56223 | 37096 ft | 472 kts | 24° |
| 2026-04-23 19:15 | 46.66470 | 15.59911 | 37115 ft | 473 kts | 24° |
| 2026-04-23 19:16 | 46.72525 | 15.63634 | 37104 ft | 468 kts | 24° |
| 2026-04-23 19:16 | 46.75453 | 15.65414 | 36737 ft | 442 kts | 24° |
| 2026-04-23 19:16 | 46.78219 | 15.67107 | 36337 ft | 421 kts | 25° |
| 2026-04-23 19:17 | 46.83490 | 15.70365 | 35533 ft | 409 kts | 25° |
| 2026-04-23 19:17 | 46.86128 | 15.71990 | 35166 ft | 418 kts | 25° |
| 2026-04-23 19:17 | 46.88819 | 15.73646 | 34804 ft | 419 kts | 26° |
| 2026-04-23 19:17 | 46.91499 | 15.75296 | 34393 ft | 416 kts | 26° |
| 2026-04-23 19:18 | 46.94159 | 15.76941 | 33959 ft | 414 kts | 26° |
| 2026-04-23 19:18 | 46.96810 | 15.78583 | 33473 ft | 413 kts | 26° |
| 2026-04-23 19:18 | 46.99458 | 15.80223 | 32998 ft | 413 kts | 26° |
| 2026-04-23 19:18 | 47.02110 | 15.81866 | 32500 ft | 414 kts | 26° |
| 2026-04-23 19:19 | 47.07389 | 15.85143 | 31496 ft | 415 kts | 27° |
| 2026-04-23 19:19 | 47.10060 | 15.86806 | 30947 ft | 417 kts | 27° |
| 2026-04-23 19:20 | 47.15408 | 15.90135 | 29659 ft | 412 kts | 27° |
| 2026-04-23 19:20 | 47.18036 | 15.91774 | 28967 ft | 409 kts | 26° |
| 2026-04-23 19:20 | 47.20641 | 15.93404 | 28291 ft | 405 kts | 26° |
| 2026-04-23 19:20 | 47.23230 | 15.95024 | 27628 ft | 402 kts | 26° |
| 2026-04-23 19:21 | 47.25795 | 15.96628 | 26985 ft | 399 kts | 26° |
| 2026-04-23 19:21 | 47.30875 | 15.99813 | 25733 ft | 394 kts | 25° |
| 2026-04-23 19:21 | 47.33385 | 16.01389 | 25138 ft | 391 kts | 25° |
| 2026-04-23 19:22 | 47.35876 | 16.02954 | 24540 ft | 388 kts | 25° |
| 2026-04-23 19:22 | 47.38396 | 16.04369 | 23949 ft | 387 kts | 21° |
| 2026-04-23 19:22 | 47.43448 | 16.06823 | 22656 ft | 383 kts | 20° |
| 2026-04-23 19:23 | 47.45966 | 16.08083 | 21990 ft | 381 kts | 20° |
| 2026-04-23 19:23 | 47.48466 | 16.09336 | 21345 ft | 379 kts | 20° |
| 2026-04-23 19:23 | 47.50956 | 16.10567 | 20719 ft | 377 kts | 19° |
| 2026-04-23 19:24 | 47.55897 | 16.13019 | 19496 ft | 372 kts | 19° |
| 2026-04-23 19:24 | 47.58344 | 16.14242 | 18910 ft | 370 kts | 18° |
| 2026-04-23 19:24 | 47.63192 | 16.16656 | 17649 ft | 364 kts | 18° |
| 2026-04-23 19:25 | 47.67943 | 16.19032 | 16352 ft | 356 kts | 18° |
| 2026-04-23 19:25 | 47.72573 | 16.21349 | 15118 ft | 350 kts | 18° |
| 2026-04-23 19:26 | 47.76970 | 16.24135 | 13834 ft | 344 kts | 34° |
| 2026-04-23 19:26 | 47.78702 | 16.26586 | 13156 ft | 342 kts | 44° |
| 2026-04-23 19:27 | 47.81794 | 16.31579 | 11898 ft | 314 kts | 44° |
| 2026-04-23 19:27 | 47.86057 | 16.38358 | 10045 ft | 287 kts | 43° |
| 2026-04-23 19:28 | 47.88434 | 16.42781 | 8642 ft | 281 kts | 59° |
| 2026-04-23 19:28 | 47.89398 | 16.48361 | 7989 ft | 266 kts | 77° |
| 2026-04-23 19:29 | 47.89153 | 16.51124 | 7685 ft | 277 kts | 102° |
| 2026-04-23 19:29 | 47.86570 | 16.55464 | 7139 ft | 294 kts | 154° |
| 2026-04-23 19:30 | 47.82653 | 16.57187 | 6812 ft | 296 kts | 166° |
| 2026-04-23 19:30 | 47.80647 | 16.58005 | 6664 ft | 301 kts | 165° |
| 2026-04-23 19:30 | 47.76544 | 16.59732 | 6296 ft | 311 kts | 166° |
| 2026-04-23 19:31 | 47.74450 | 16.60597 | 6106 ft | 313 kts | 166° |
| 2026-04-23 19:31 | 47.72350 | 16.61465 | 6029 ft | 311 kts | 166° |
| 2026-04-23 19:31 | 47.70413 | 16.62690 | 5948 ft | 306 kts | 143° |
| 2026-04-23 19:31 | 47.68958 | 16.64928 | 5625 ft | 297 kts | 124° |
| 2026-04-23 19:32 | 47.67802 | 16.67397 | 5291 ft | 284 kts | 113° |
| 2026-04-23 19:32 | 47.67429 | 16.70135 | 4817 ft | 262 kts | 77° |
| 2026-04-23 19:32 | 47.68097 | 16.72454 | 4364 ft | 235 kts | 40° |
| 2026-04-23 19:32 | 47.69407 | 16.73678 | 4029 ft | 214 kts | 15° |
| 2026-04-23 19:33 | 47.70772 | 16.74027 | 4021 ft | 190 kts | 355° |
| 2026-04-23 19:33 | 47.72054 | 16.73854 | 4046 ft | 182 kts | 352° |
| 2026-04-23 19:33 | 47.74628 | 16.73446 | 4041 ft | 187 kts | 347° |
| 2026-04-23 19:34 | 47.75905 | 16.72959 | 4036 ft | 192 kts | 343° |
| 2026-04-23 19:34 | 47.77207 | 16.72411 | 4040 ft | 198 kts | 343° |
| 2026-04-23 19:34 | 47.79760 | 16.71342 | 4019 ft | 175 kts | 343° |
| 2026-04-23 19:35 | 47.80878 | 16.70873 | 4019 ft | 161 kts | 343° |
| 2026-04-23 19:35 | 47.81930 | 16.70438 | 4017 ft | 154 kts | 343° |
| 2026-04-23 19:35 | 47.82949 | 16.70011 | 4023 ft | 150 kts | 343° |
| 2026-04-23 19:35 | 47.83944 | 16.69592 | 4027 ft | 147 kts | 343° |
| 2026-04-23 19:36 | 47.84922 | 16.69188 | 4031 ft | 145 kts | 343° |
| 2026-04-23 19:36 | 47.85888 | 16.68782 | 4027 ft | 144 kts | 343° |
| 2026-04-23 19:36 | 47.86851 | 16.68377 | 4033 ft | 143 kts | 343° |
| 2026-04-23 19:36 | 47.87814 | 16.67978 | 4032 ft | 143 kts | 343° |
| 2026-04-23 19:37 | 47.88771 | 16.67575 | 4030 ft | 143 kts | 343° |
| 2026-04-23 19:37 | 47.89717 | 16.67176 | 4029 ft | 143 kts | 343° |
| 2026-04-23 19:37 | 47.90672 | 16.66781 | 4033 ft | 142 kts | 343° |
| 2026-04-23 19:37 | 47.91620 | 16.66381 | 4026 ft | 141 kts | 344° |
| 2026-04-23 19:38 | 47.92573 | 16.65981 | 3937 ft | 146 kts | 343° |
| 2026-04-23 19:38 | 47.93583 | 16.65559 | 3721 ft | 154 kts | 344° |
| 2026-04-23 19:38 | 47.94617 | 16.65126 | 3497 ft | 148 kts | 344° |
| 2026-04-23 19:38 | 47.95544 | 16.64735 | 3314 ft | 130 kts | 343° |
| 2026-04-23 19:39 | 47.96402 | 16.64374 | 3133 ft | 125 kts | 343° |
| 2026-04-23 19:39 | 47.97232 | 16.64030 | 2914 ft | 120 kts | 343° |
| 2026-04-23 19:39 | 47.98041 | 16.63690 | 2810 ft | 124 kts | 343° |
| 2026-04-23 19:39 | 47.98888 | 16.63333 | 2642 ft | 128 kts | 343° |
| 2026-04-23 19:40 | 47.99748 | 16.62970 | 2476 ft | 129 kts | 343° |
| 2026-04-23 19:40 | 48.00594 | 16.62613 | 2300 ft | 121 kts | 343° |
| 2026-04-23 19:40 | 48.01354 | 16.62292 | 2142 ft | 108 kts | 344° |
| 2026-04-23 19:40 | 48.02049 | 16.62000 | 2009 ft | 103 kts | 343° |
| 2026-04-23 19:41 | 48.02735 | 16.61713 | 1864 ft | 102 kts | 343° |
| 2026-04-23 19:41 | 48.03417 | 16.61425 | 1723 ft | 102 kts | 343° |
| 2026-04-23 19:41 | 48.04097 | 16.61138 | 1591 ft | 102 kts | 345° |
| 2026-04-23 19:41 | 48.04802 | 16.60842 | 1437 ft | 111 kts | 342° |
| 2026-04-23 19:42 | 48.05598 | 16.60536 | 1260 ft | 123 kts | 343° |
| 2026-04-23 19:42 | 48.06404 | 16.60207 | 1125 ft | 119 kts | 342° |
| 2026-04-23 19:42 | 48.07198 | 16.59833 | 961 ft | 120 kts | 342° |
| 2026-04-23 19:42 | 48.07999 | 16.59495 | 818 ft | 120 kts | 343° |
| 2026-04-23 19:43 | 48.08793 | 16.59160 | 671 ft | 116 kts | 343° |
| 2026-04-23 19:43 | 48.09529 | 16.58842 | 606 ft | 98 kts | 348° |
| 2026-04-23 19:43 | 48.10010 | 16.58649 | 606 ft | 50 kts | 344° |
| 2026-04-23 19:43 | 48.10327 | 16.58513 | 609 ft | 45 kts | 344° |
| 2026-04-23 19:44 | 48.10529 | 16.58429 | 609 ft | 20 kts | 344° |
| 2026-04-23 19:44 | 48.10655 | 16.58350 | 606 ft | 20 kts | 328° |
| 2026-04-23 19:44 | 48.10763 | 16.58228 | 606 ft | 19 kts | 316° |
| 2026-04-23 19:44 | 48.10855 | 16.58086 | 612 ft | 19 kts | 314° |
| 2026-04-23 19:45 | 48.10945 | 16.57951 | 606 ft | 18 kts | 315° |
| 2026-04-23 19:45 | 48.11029 | 16.57811 | 606 ft | 18 kts | 303° |
| 2026-04-23 19:45 | 48.11087 | 16.57649 | 611 ft | 17 kts | 296° |
| 2026-04-23 19:45 | 48.11139 | 16.57486 | 608 ft | 17 kts | 295° |
| 2026-04-23 19:46 | 48.11192 | 16.57325 | 612 ft | 17 kts | 296° |
| 2026-04-23 19:46 | 48.11244 | 16.57166 | 613 ft | 17 kts | 295° |
| 2026-04-23 19:46 | 48.11295 | 16.57007 | 614 ft | 17 kts | 296° |
| 2026-04-23 19:46 | 48.11346 | 16.56851 | 612 ft | 17 kts | 296° |
| 2026-04-23 19:47 | 48.11380 | 16.56748 | 609 ft | 17 kts | 296° |
| 2026-04-23 19:47 | 48.11446 | 16.56543 | 613 ft | 16 kts | 296° |
| 2026-04-23 19:47 | 48.11495 | 16.56397 | 609 ft | 16 kts | 296° |
| 2026-04-23 19:47 | 48.11540 | 16.56258 | 611 ft | 14 kts | 296° |
| 2026-04-23 19:48 | 48.11582 | 16.56127 | 614 ft | 13 kts | 296° |
| 2026-04-23 19:48 | 48.11623 | 16.56010 | 610 ft | 12 kts | 310° |
| 2026-04-23 19:48 | 48.11695 | 16.55972 | 615 ft | 10 kts | 347° |
| 2026-04-23 19:48 | 48.11746 | 16.55901 | 612 ft | 10 kts | 303° |
| 2026-04-23 19:49 | 48.11779 | 16.55804 | 611 ft | 11 kts | 295° |
| 2026-04-23 19:49 | 48.11811 | 16.55704 | 609 ft | 11 kts | 296° |
| 2026-04-23 19:49 | 48.11845 | 16.55603 | 608 ft | 11 kts | 296° |
| 2026-04-23 19:49 | 48.11877 | 16.55498 | 613 ft | 11 kts | 288° |
| 2026-04-23 19:50 | 48.11904 | 16.55389 | 606 ft | 11 kts | 294° |
| 2026-04-23 19:50 | 48.11937 | 16.55279 | 612 ft | 12 kts | 294° |
| 2026-04-23 19:50 | 48.11971 | 16.55170 | 612 ft | 12 kts | 297° |
| 2026-04-23 19:50 | 48.12009 | 16.55061 | 611 ft | 12 kts | 298° |
| 2026-04-23 19:51 | 48.12046 | 16.54950 | 606 ft | 12 kts | 295° |
| 2026-04-23 19:51 | 48.12083 | 16.54837 | 608 ft | 12 kts | 296° |
| 2026-04-23 19:51 | 48.12120 | 16.54723 | 607 ft | 12 kts | 296° |
| 2026-04-23 19:51 | 48.12157 | 16.54608 | 612 ft | 12 kts | 296° |
| 2026-04-23 19:52 | 48.12182 | 16.54531 | 610 ft | 12 kts | 295° |
| 2026-04-23 19:52 | 48.12191 | 16.54381 | 613 ft | 11 kts | 234° |
| 2026-04-23 19:52 | 48.12184 | 16.54278 | 611 ft | 10 kts | 292° |
| 2026-04-23 19:52 | 48.12215 | 16.54179 | 609 ft | 11 kts | 296° |
| 2026-04-23 19:53 | 48.12248 | 16.54079 | 614 ft | 11 kts | 296° |
| 2026-04-23 19:53 | 48.12282 | 16.53978 | 613 ft | 11 kts | 296° |
| 2026-04-23 19:53 | 48.12316 | 16.53875 | 611 ft | 11 kts | 296° |
| 2026-04-23 19:53 | 48.12351 | 16.53770 | 606 ft | 11 kts | 294° |
| 2026-04-23 19:54 | 48.12373 | 16.53698 | 611 ft | 11 kts | 294° |
| 2026-04-23 19:54 | 48.12452 | 16.53636 | 613 ft | 10 kts | 357° |
| 2026-04-23 19:54 | 48.12513 | 16.53631 | 606 ft | 8 kts | 15° |
| 2026-04-23 19:54 | 48.12556 | 16.53647 | 606 ft | 4 kts | 345° |
| 2026-04-23 19:55 | 48.12573 | 16.53616 | 608 ft | 4 kts | 298° |
| 2026-04-23 19:55 | 48.12576 | 16.53606 | 606 ft | 0 kts | 296° |
| 2026-04-23 19:55 | 48.12576 | 16.53608 | 606 ft | 0 kts | 296° |
| 2026-04-23 19:55 | 48.12577 | 16.53605 | 606 ft | 0 kts | 296° |
| 2026-04-23 19:56 | 48.12578 | 16.53599 | 606 ft | 1 kts | 293° |
| 2026-04-23 19:56 | 48.12581 | 16.53590 | 606 ft | 0 kts | 293° |